Carnival Destiny — C6FN4 — position and weather

sailwx.info

Track history (hours):
 
Tides and Currents Weather Stations Pressure Air Temp Water Temp Dewpoint Dewpoint Depression Visibility Wind Speed Wind Dir Waves Ship Positions

Carnival Destiny

Operator: Carnival Cruise Lines

Last reported at 2018-Jul-16 01:20 UTC. Time now 2018-Jul-22 07:01 UTC.
Position N 27°51' W 079°20'.

Type: Passenger vessel. MMSI: 308017000.

Date/timePositionNaut miles runAvg speedWind from/ knotsBaromVisibWave heightAir tempDewpointWater temp
2018-Jul-16 01:20N 27°51' W 079°20'916.5
2018-Jul-16 00:48N 27°55' W 079°29'616.1
2018-Jul-16 00:26N 27°57' W 079°35'815.8
2018-Jul-15 23:55N 28°01' W 079°44'  
2018-Jul-12 23:20N 18°24' W 063°35'720.3
2018-Jul-12 23:00N 18°19' W 063°30'1120.1
2018-Jul-12 22:28N 18°11' W 063°23'1319.9
2018-Jul-12 21:48N 18°02' W 063°13'618.0
2018-Jul-12 21:30N 18°00' W 063°08'5 9.7
2018-Jul-12 21:00N 18°01' W 063°03'0 0.1
2018-Jul-12 20:28N 18°01' W 063°03'0 0.0
2018-Jul-12 19:58N 18°01' W 063°03'0 0.0
2018-Jul-12 18:43N 18°01' W 063°03'0 0.0
2018-Jul-12 18:29N 18°01' W 063°03'0 0.0
2018-Jul-12 17:16N 18°01' W 063°03'0 0.0
2018-Jul-12 16:58N 18°01' W 063°03'0 0.0
2018-Jul-12 16:28N 18°01' W 063°03'0 0.0
2018-Jul-12 15:49N 18°01' W 063°03'0 0.0
2018-Jul-12 14:31N 18°01' W 063°03'0 0.0
2018-Jul-12 14:19N 18°01' W 063°03'0 0.0
2018-Jul-12 13:49N 18°01' W 063°03'0 0.0
2018-Jul-12 13:16N 18°01' W 063°03'0 0.0
2018-Jul-12 12:52N 18°01' W 063°03'0 0.0
2018-Jul-12 12:22N 18°01' W 063°03'0 0.0
2018-Jul-12 11:49N 18°01' W 063°03'1 3.0
2018-Jul-12 11:22N 17°60' W 063°04'5 7.3
2018-Jul-12 10:41N 18°00' W 063°09'2 8.8
2018-Jul-12 10:26N 18°01' W 063°11'4 8.9
2018-Jul-12 10:00N 18°01' W 063°15'5 8.5
2018-Jul-12 09:27N 18°02' W 063°20'5 9.1
2018-Jul-12 08:57N 18°02' W 063°25'4 9.2
2018-Jul-12 08:29N 18°03' W 063°30'4 9.2
2018-Jul-12 08:00N 18°03' W 063°34'5 9.4
2018-Jul-12 07:27N 18°04' W 063°40'4 8.8
2018-Jul-12 06:59N 18°03' W 063°44'5 8.7
2018-Jul-12 06:25N 17°58' W 063°45'5 9.0
2018-Jul-12 05:49N 17°52' W 063°45'3 8.9
2018-Jul-12 05:25N 17°50' W 063°42'4 9.4
2018-Jul-12 04:57N 17°49' W 063°38'510.2
2018-Jul-12 04:28N 17°49' W 063°33'611.0
2018-Jul-12 03:57N 17°49' W 063°27'714.6
2018-Jul-12 03:30N 17°47' W 063°20'1614.2
2018-Jul-12 02:23N 17°35' W 063°09'714.7
2018-Jul-12 01:56N 17°29' W 063°07'715.0
2018-Jul-12 01:28N 17°25' W 063°01'9 0.7
2018-Jul-11 12:33N 17°20' W 062°54'316.1
2018-Jul-11 12:23N 17°22' W 062°56'716.5
2018-Jul-11 11:57N 17°26' W 063°02'919.0
2018-Jul-11 11:30N 17°34' W 063°06'1418.3
2018-Jul-11 10:44N 17°43' W 063°17'519.1
2018-Jul-11 10:27N 17°45' W 063°22'919.2
2018-Jul-11 10:00N 17°49' W 063°30'1019.1
2018-Jul-11 09:30N 17°53' W 063°39'  
2018-Jul-06 09:00N 23°42' W 073°30'   080 / 101017.0 28.023.728.0
Track history (hours):
 
Tides and Currents Weather Stations Pressure Air Temp Water Temp Dewpoint Dewpoint Depression Visibility Wind Speed Wind Dir Waves Ship Positions

Carnival Destiny

Operator: Carnival Cruise Lines

Last reported at 2018-Jul-16 01:20 UTC. Time now 2018-Jul-22 07:01 UTC.
Position N 27°51' W 079°20'.

Type: Passenger vessel. MMSI: 308017000.

Date/timePositionNaut miles runAvg speedWind from/ knotsBaromVisibWave heightAir tempDewpointWater temp
2018-Jul-16 01:20N 27°51' W 079°20'916.5
2018-Jul-16 00:48N 27°55' W 079°29'616.1
2018-Jul-16 00:26N 27°57' W 079°35'815.8
2018-Jul-15 23:55N 28°01' W 079°44'  
2018-Jul-12 23:20N 18°24' W 063°35'720.3
2018-Jul-12 23:00N 18°19' W 063°30'1120.1
2018-Jul-12 22:28N 18°11' W 063°23'1319.9
2018-Jul-12 21:48N 18°02' W 063°13'618.0
2018-Jul-12 21:30N 18°00' W 063°08'5 9.7
2018-Jul-12 21:00N 18°01' W 063°03'0 0.1
2018-Jul-12 20:28N 18°01' W 063°03'0 0.0
2018-Jul-12 19:58N 18°01' W 063°03'0 0.0
2018-Jul-12 18:43N 18°01' W 063°03'0 0.0
2018-Jul-12 18:29N 18°01' W 063°03'0 0.0
2018-Jul-12 17:16N 18°01' W 063°03'0 0.0
2018-Jul-12 16:58N 18°01' W 063°03'0 0.0
2018-Jul-12 16:28N 18°01' W 063°03'0 0.0
2018-Jul-12 15:49N 18°01' W 063°03'0 0.0
2018-Jul-12 14:31N 18°01' W 063°03'0 0.0
2018-Jul-12 14:19N 18°01' W 063°03'0 0.0
2018-Jul-12 13:49N 18°01' W 063°03'0 0.0
2018-Jul-12 13:16N 18°01' W 063°03'0 0.0
2018-Jul-12 12:52N 18°01' W 063°03'0 0.0
2018-Jul-12 12:22N 18°01' W 063°03'0 0.0
2018-Jul-12 11:49N 18°01' W 063°03'1 3.0
2018-Jul-12 11:22N 17°60' W 063°04'5 7.3
2018-Jul-12 10:41N 18°00' W 063°09'2 8.8
2018-Jul-12 10:26N 18°01' W 063°11'4 8.9
2018-Jul-12 10:00N 18°01' W 063°15'5 8.5
2018-Jul-12 09:27N 18°02' W 063°20'5 9.1
2018-Jul-12 08:57N 18°02' W 063°25'4 9.2
2018-Jul-12 08:29N 18°03' W 063°30'4 9.2
2018-Jul-12 08:00N 18°03' W 063°34'5 9.4
2018-Jul-12 07:27N 18°04' W 063°40'4 8.8
2018-Jul-12 06:59N 18°03' W 063°44'5 8.7
2018-Jul-12 06:25N 17°58' W 063°45'5 9.0
2018-Jul-12 05:49N 17°52' W 063°45'3 8.9
2018-Jul-12 05:25N 17°50' W 063°42'4 9.4
2018-Jul-12 04:57N 17°49' W 063°38'510.2
2018-Jul-12 04:28N 17°49' W 063°33'611.0
2018-Jul-12 03:57N 17°49' W 063°27'714.6
2018-Jul-12 03:30N 17°47' W 063°20'1614.2
2018-Jul-12 02:23N 17°35' W 063°09'714.7
2018-Jul-12 01:56N 17°29' W 063°07'715.0
2018-Jul-12 01:28N 17°25' W 063°01'9 0.7
2018-Jul-11 12:33N 17°20' W 062°54'316.1
2018-Jul-11 12:23N 17°22' W 062°56'716.5
2018-Jul-11 11:57N 17°26' W 063°02'919.0
2018-Jul-11 11:30N 17°34' W 063°06'1418.3
2018-Jul-11 10:44N 17°43' W 063°17'519.1
2018-Jul-11 10:27N 17°45' W 063°22'919.2
2018-Jul-11 10:00N 17°49' W 063°30'1019.1
2018-Jul-11 09:30N 17°53' W 063°39'  
2018-Jul-06 09:00N 23°42' W 073°30'   080 / 101017.0 28.023.728.0

Dump ship's entire track history